Time;durP1;ratioP1;P1;durP2;ratioP2;P2;SDS_P1;SDS_P2;PMS_P1;PMS_P2;Temp;Humidity;BMP_temperature;BMP_pressure;BME280_temperature;BME280_humidity;BME280_pressure;Samples;Min_cycle;Max_cycle;Signal;HPM_P1;HPM_P2
2023/08/23 00:02:23;;;;;;;7.82;3.40;;;;;;;;;;5095546;28;20020;-65
2023/08/23 00:04:50;;;;;;;7.63;4.15;;;;;;;;;;5093963;28;20373;-65
2023/08/23 00:07:16;;;;;;;5.70;3.22;;;;;;;;;;5094714;28;20012;-65
2023/08/23 00:09:43;;;;;;;5.38;3.10;;;;;;;;;;5095393;28;20529;-65
2023/08/23 00:12:09;;;;;;;4.32;3.15;;;;;;;;;;5094594;28;20028;-65
2023/08/23 00:14:36;;;;;;;5.90;3.10;;;;;;;;;;5095230;28;20092;-65
2023/08/23 00:17:02;;;;;;;5.88;3.10;;;;;;;;;;5095011;28;20438;-65
2023/08/23 00:19:28;;;;;;;4.43;3.10;;;;;;;;;;5095321;28;20020;-66
2023/08/23 00:21:54;;;;;;;6.40;3.60;;;;;;;;;;5094999;28;20022;-65
2023/08/23 00:24:21;;;;;;;5.65;3.67;;;;;;;;;;5094451;28;20028;-65
2023/08/23 00:26:47;;;;;;;5.07;3.70;;;;;;;;;;5095171;28;20024;-65
2023/08/23 00:29:13;;;;;;;5.05;3.20;;;;;;;;;;5094811;28;20024;-66
2023/08/23 00:31:40;;;;;;;5.63;3.63;;;;;;;;;;5094672;28;20473;-66
2023/08/23 00:34:06;;;;;;;6.85;3.42;;;;;;;;;;5094593;28;20052;-67
2023/08/23 00:36:32;;;;;;;6.47;3.30;;;;;;;;;;5094564;28;20054;-67
2023/08/23 00:38:59;;;;;;;8.73;3.55;;;;;;;;;;5094433;28;20040;-66
2023/08/23 00:41:25;;;;;;;6.05;3.65;;;;;;;;;;5094318;28;20024;-66
2023/08/23 00:43:51;;;;;;;5.25;3.40;;;;;;;;;;5094767;28;20028;-67
2023/08/23 00:46:18;;;;;;;5.30;3.60;;;;;;;;;;5094353;28;20549;-66
2023/08/23 00:48:46;;;;;;;4.55;3.40;;;;;;;;;;5094354;28;20016;-67
2023/08/23 00:51:13;;;;;;;6.55;3.40;;;;;;;;;;5094318;28;20027;-67
2023/08/23 00:53:40;;;;;;;9.20;3.42;;;;;;;;;;5094399;28;20028;-66
2023/08/23 00:56:06;;;;;;;5.45;3.40;;;;;;;;;;5094083;28;20048;-67
2023/08/23 00:58:33;;;;;;;7.13;3.63;;;;;;;;;;5094493;28;20016;-67
2023/08/23 01:01:00;;;;;;;7.70;3.63;;;;;;;;;;5094327;28;20068;-67
2023/08/23 01:03:26;;;;;;;9.57;4.18;;;;;;;;;;5094240;28;20020;-67
2023/08/23 01:06:03;;;;;;;6.75;3.35;;;;;;;;;;5094545;28;20026;-66
2023/08/23 01:08:39;;;;;;;4.95;3.45;;;;;;;;;;5093709;28;20383;-66
2023/08/23 01:11:14;;;;;;;7.28;3.40;;;;;;;;;;5094216;28;20024;-67
2023/08/23 01:13:40;;;;;;;8.95;3.55;;;;;;;;;;5093814;28;20032;-67
2023/08/23 01:16:09;;;;;;;6.85;3.55;;;;;;;;;;5093718;28;20065;-66
2023/08/23 01:18:35;;;;;;;6.35;3.33;;;;;;;;;;5092830;28;20518;-67
2023/08/23 01:21:03;;;;;;;4.78;3.70;;;;;;;;;;5094018;28;20038;-67
2023/08/23 01:23:30;;;;;;;7.57;3.78;;;;;;;;;;5093228;28;20034;-67
2023/08/23 01:25:56;;;;;;;4.40;3.13;;;;;;;;;;5094120;28;20031;-67
2023/08/23 01:28:22;;;;;;;8.20;4.20;;;;;;;;;;5093675;28;20088;-67
2023/08/23 01:30:50;;;;;;;6.47;3.42;;;;;;;;;;5093489;28;20035;-67
2023/08/23 01:33:22;;;;;;;6.63;3.42;;;;;;;;;;5093392;28;20054;-67
2023/08/23 01:35:54;;;;;;;7.57;3.30;;;;;;;;;;5093398;28;20039;-67
2023/08/23 01:38:21;;;;;;;10.27;4.05;;;;;;;;;;5093211;28;20024;-67
2023/08/23 01:40:48;;;;;;;6.47;3.67;;;;;;;;;;5093433;28;20027;-67
2023/08/23 01:43:14;;;;;;;3.90;3.22;;;;;;;;;;5093606;28;20028;-67
2023/08/23 01:45:40;;;;;;;7.40;3.83;;;;;;;;;;5093407;28;20024;-67
2023/08/23 01:48:07;;;;;;;6.70;3.58;;;;;;;;;;5093101;28;20434;-67
2023/08/23 01:50:33;;;;;;;8.50;3.47;;;;;;;;;;5093405;28;20019;-67
2023/08/23 01:52:59;;;;;;;6.35;3.65;;;;;;;;;;5092880;28;20024;-67
2023/08/23 01:55:26;;;;;;;7.85;3.75;;;;;;;;;;5093438;28;20036;-67
2023/08/23 01:57:52;;;;;;;5.97;3.75;;;;;;;;;;5093040;28;20020;-67
2023/08/23 02:00:19;;;;;;;9.50;3.60;;;;;;;;;;5092954;28;20415;-66
2023/08/23 02:02:45;;;;;;;7.50;3.90;;;;;;;;;;5092108;28;20028;-67
2023/08/23 02:05:11;;;;;;;4.68;3.58;;;;;;;;;;5093208;28;20618;-67
2023/08/23 02:07:37;;;;;;;5.93;3.63;;;;;;;;;;5092672;28;20020;-67
2023/08/23 02:10:04;;;;;;;7.20;3.70;;;;;;;;;;5093399;28;20026;-67
2023/08/23 02:12:30;;;;;;;4.40;3.60;;;;;;;;;;5092968;28;20021;-67
2023/08/23 02:14:56;;;;;;;8.43;4.15;;;;;;;;;;5092780;28;20043;-67
2023/08/23 02:17:23;;;;;;;4.43;3.28;;;;;;;;;;5092808;28;20024;-67
2023/08/23 02:19:49;;;;;;;4.75;3.88;;;;;;;;;;5092550;28;20508;-67
2023/08/23 02:22:15;;;;;;;8.77;3.13;;;;;;;;;;5092464;28;20557;-67
2023/08/23 02:24:42;;;;;;;4.38;3.63;;;;;;;;;;5092855;28;20028;-66
2023/08/23 02:27:08;;;;;;;7.63;3.90;;;;;;;;;;5092785;28;20031;-67
2023/08/23 02:29:34;;;;;;;5.43;3.72;;;;;;;;;;5092539;28;20024;-67
2023/08/23 02:32:01;;;;;;;6.93;4.10;;;;;;;;;;5092540;28;20024;-67
2023/08/23 02:34:27;;;;;;;9.10;4.07;;;;;;;;;;5092490;28;20056;-67
2023/08/23 02:36:53;;;;;;;8.35;3.97;;;;;;;;;;5091983;28;20053;-67
2023/08/23 02:39:20;;;;;;;7.85;4.03;;;;;;;;;;5092646;28;20031;-67
2023/08/23 02:41:46;;;;;;;5.30;3.83;;;;;;;;;;5092805;28;20032;-67
2023/08/23 02:44:12;;;;;;;4.65;3.75;;;;;;;;;;5092407;28;20030;-67
2023/08/23 02:46:38;;;;;;;5.57;3.65;;;;;;;;;;5092839;28;20038;-67
2023/08/23 02:49:05;;;;;;;7.50;4.25;;;;;;;;;;5092490;28;20024;-67
2023/08/23 02:51:31;;;;;;;6.57;3.63;;;;;;;;;;5092345;28;20020;-67
2023/08/23 02:53:57;;;;;;;7.00;3.95;;;;;;;;;;5092468;28;20038;-66
2023/08/23 02:56:24;;;;;;;5.05;3.63;;;;;;;;;;5092509;28;20029;-67
2023/08/23 02:58:50;;;;;;;5.70;3.67;;;;;;;;;;5092425;28;20016;-67
2023/08/23 03:01:16;;;;;;;5.10;3.67;;;;;;;;;;5092464;28;20024;-67
2023/08/23 03:03:43;;;;;;;4.82;4.00;;;;;;;;;;5092793;28;20020;-66
2023/08/23 03:06:09;;;;;;;6.93;3.55;;;;;;;;;;5091863;28;20026;-66
2023/08/23 03:08:35;;;;;;;6.10;3.83;;;;;;;;;;5092072;28;20514;-67
2023/08/23 03:11:03;;;;;;;5.97;4.15;;;;;;;;;;5092439;28;20024;-67
2023/08/23 03:13:29;;;;;;;6.05;3.70;;;;;;;;;;5092261;28;20465;-67
2023/08/23 03:15:56;;;;;;;7.63;4.00;;;;;;;;;;5092266;28;20040;-67
2023/08/23 03:18:22;;;;;;;6.63;3.70;;;;;;;;;;5091785;28;20033;-66
2023/08/23 03:20:49;;;;;;;5.38;3.72;;;;;;;;;;5091918;28;20049;-67
2023/08/23 03:23:16;;;;;;;8.75;3.80;;;;;;;;;;5092494;28;20033;-67
2023/08/23 03:25:45;;;;;;;5.80;3.95;;;;;;;;;;5091981;28;20051;-67
2023/08/23 03:28:12;;;;;;;5.90;3.58;;;;;;;;;;5092299;28;20473;-67
2023/08/23 03:30:39;;;;;;;4.35;3.72;;;;;;;;;;5092088;28;20030;-67
2023/08/23 03:33:05;;;;;;;4.25;3.80;;;;;;;;;;5091981;28;20069;-66
2023/08/23 03:35:31;;;;;;;6.07;3.80;;;;;;;;;;5091654;28;20044;-67
2023/08/23 03:37:58;;;;;;;3.95;3.55;;;;;;;;;;5092255;28;20024;-67
2023/08/23 03:40:24;;;;;;;6.28;3.70;;;;;;;;;;5092224;28;20020;-67
2023/08/23 03:42:50;;;;;;;7.00;3.80;;;;;;;;;;5094954;28;20020;-67
2023/08/23 03:45:18;;;;;;;8.88;4.55;;;;;;;;;;5095595;28;20506;-67
2023/08/23 03:47:44;;;;;;;6.13;4.45;;;;;;;;;;5095672;28;20028;-67
2023/08/23 03:50:11;;;;;;;6.18;4.18;;;;;;;;;;5095685;28;20035;-67
2023/08/23 03:52:37;;;;;;;9.55;3.75;;;;;;;;;;5095613;28;20020;-67
2023/08/23 03:55:03;;;;;;;5.38;3.53;;;;;;;;;;5095260;28;20476;-66
2023/08/23 03:57:30;;;;;;;6.53;4.00;;;;;;;;;;5095470;28;20027;-66
2023/08/23 03:59:56;;;;;;;5.40;4.05;;;;;;;;;;5095749;28;20024;-67
2023/08/23 04:02:22;;;;;;;4.32;3.90;;;;;;;;;;5095088;28;20501;-67
2023/08/23 04:04:49;;;;;;;5.50;4.32;;;;;;;;;;5095500;28;20028;-66
2023/08/23 04:07:16;;;;;;;6.45;3.90;;;;;;;;;;5094996;28;20020;-67
2023/08/23 04:09:42;;;;;;;7.65;3.95;;;;;;;;;;5095318;28;20027;-67
2023/08/23 04:12:09;;;;;;;8.30;4.13;;;;;;;;;;5095431;28;20019;-67
2023/08/23 04:14:36;;;;;;;5.88;3.90;;;;;;;;;;5094872;28;20028;-66
2023/08/23 04:17:03;;;;;;;8.40;4.13;;;;;;;;;;5094707;28;20034;-66
2023/08/23 04:19:30;;;;;;;5.53;4.50;;;;;;;;;;5094951;28;20024;-66
2023/08/23 04:21:56;;;;;;;5.97;4.50;;;;;;;;;;5095135;28;20036;-65
2023/08/23 04:24:22;;;;;;;7.43;4.25;;;;;;;;;;5093659;28;20526;-65
2023/08/23 04:26:49;;;;;;;5.35;4.32;;;;;;;;;;5095183;28;20024;-65
2023/08/23 04:29:15;;;;;;;6.72;4.13;;;;;;;;;;5095000;28;20034;-66
2023/08/23 04:31:41;;;;;;;6.07;4.30;;;;;;;;;;5094409;28;20024;-66
2023/08/23 04:34:08;;;;;;;7.15;4.20;;;;;;;;;;5094414;28;20048;-66
2023/08/23 04:36:34;;;;;;;5.90;4.00;;;;;;;;;;5094836;28;20038;-66
2023/08/23 04:39:00;;;;;;;5.70;3.80;;;;;;;;;;5094638;28;20016;-66
2023/08/23 04:41:27;;;;;;;7.43;4.32;;;;;;;;;;5094761;28;20028;-66
2023/08/23 04:43:53;;;;;;;6.72;4.30;;;;;;;;;;5094372;28;20022;-66
2023/08/23 04:46:19;;;;;;;4.47;3.72;;;;;;;;;;5094132;28;20024;-66
2023/08/23 04:48:45;;;;;;;7.85;4.50;;;;;;;;;;5094586;28;20024;-67
2023/08/23 04:51:12;;;;;;;5.32;3.97;;;;;;;;;;5094403;28;20032;-66
2023/08/23 04:53:39;;;;;;;4.68;4.15;;;;;;;;;;5094124;28;20403;-67
2023/08/23 04:56:05;;;;;;;6.53;4.22;;;;;;;;;;5092971;28;20044;-66
2023/08/23 04:58:31;;;;;;;5.55;4.32;;;;;;;;;;5094338;28;20391;-66
2023/08/23 05:01:05;;;;;;;8.98;3.95;;;;;;;;;;5094132;28;20084;-65
2023/08/23 05:03:35;;;;;;;6.50;4.45;;;;;;;;;;5094500;28;20024;-66
2023/08/23 05:06:02;;;;;;;10.97;4.50;;;;;;;;;;5093968;28;20034;-65
2023/08/23 05:08:29;;;;;;;6.80;4.50;;;;;;;;;;5094005;28;20265;-66
2023/08/23 05:10:56;;;;;;;5.20;4.05;;;;;;;;;;5094051;28;20043;-64
2023/08/23 05:13:22;;;;;;;6.32;4.57;;;;;;;;;;5094139;28;20034;-65
2023/08/23 05:15:52;;;;;;;9.52;4.38;;;;;;;;;;5093358;28;20028;-66
2023/08/23 05:18:19;;;;;;;10.75;4.60;;;;;;;;;;5109697;28;20537;-67
2023/08/23 05:20:46;;;;;;;5.32;4.50;;;;;;;;;;5094000;28;20035;-65
2023/08/23 05:23:12;;;;;;;6.72;4.30;;;;;;;;;;5093798;28;20020;-66
2023/08/23 05:25:38;;;;;;;10.80;4.60;;;;;;;;;;5093522;28;20038;-66
2023/08/23 05:28:05;;;;;;;7.05;4.90;;;;;;;;;;5093782;28;20022;-66
2023/08/23 05:30:33;;;;;;;6.40;4.95;;;;;;;;;;5093297;28;20468;-66
2023/08/23 05:33:00;;;;;;;7.20;4.90;;;;;;;;;;5093515;28;20076;-67
2023/08/23 05:35:26;;;;;;;8.88;4.80;;;;;;;;;;5093328;28;20052;-66
2023/08/23 05:37:53;;;;;;;11.73;4.30;;;;;;;;;;5093490;28;20020;-66
2023/08/23 05:40:19;;;;;;;6.65;4.70;;;;;;;;;;5093374;28;20406;-66
2023/08/23 05:42:45;;;;;;;7.60;4.40;;;;;;;;;;5093386;28;20024;-67
2023/08/23 05:45:12;;;;;;;7.93;4.70;;;;;;;;;;5093018;28;20032;-67
2023/08/23 05:47:38;;;;;;;9.52;4.15;;;;;;;;;;5093372;28;20034;-66
2023/08/23 05:50:05;;;;;;;6.97;4.60;;;;;;;;;;5093461;28;20028;-66
2023/08/23 05:52:31;;;;;;;20.17;5.40;;;;;;;;;;5093605;28;20022;-66
2023/08/23 05:54:57;;;;;;;21.50;5.80;;;;;;;;;;5092931;28;20039;-66
2023/08/23 05:57:24;;;;;;;19.35;5.57;;;;;;;;;;5093174;28;20020;-67
2023/08/23 05:59:50;;;;;;;11.55;5.22;;;;;;;;;;5091587;28;20035;-67
2023/08/23 06:02:16;;;;;;;10.68;4.75;;;;;;;;;;5093085;28;20062;-66
2023/08/23 06:04:43;;;;;;;9.65;5.10;;;;;;;;;;5092703;28;20027;-67
2023/08/23 06:07:09;;;;;;;13.07;5.10;;;;;;;;;;5092906;28;20388;-66
2023/08/23 06:09:35;;;;;;;9.23;5.00;;;;;;;;;;5093002;28;20027;-67
2023/08/23 06:12:01;;;;;;;9.13;5.50;;;;;;;;;;5092926;28;20012;-67
2023/08/23 06:14:29;;;;;;;6.13;5.18;;;;;;;;;;5104054;28;20042;-74
2023/08/23 06:16:55;;;;;;;6.75;4.60;;;;;;;;;;5092553;28;20028;-72
2023/08/23 06:19:22;;;;;;;14.15;5.68;;;;;;;;;;5092478;28;20028;-71
2023/08/23 06:21:48;;;;;;;9.45;4.75;;;;;;;;;;5092484;28;20024;-72
2023/08/23 06:24:14;;;;;;;11.75;4.90;;;;;;;;;;5092400;28;20032;-72
2023/08/23 06:26:41;;;;;;;9.63;4.22;;;;;;;;;;5092219;28;20387;-72
2023/08/23 06:29:07;;;;;;;12.98;5.43;;;;;;;;;;5092233;28;20020;-71
2023/08/23 06:31:33;;;;;;;12.15;5.25;;;;;;;;;;5092479;28;20020;-71
2023/08/23 06:34:00;;;;;;;10.13;5.38;;;;;;;;;;5091826;28;20036;-71
2023/08/23 06:36:27;;;;;;;10.20;5.32;;;;;;;;;;5092353;28;20036;-71
2023/08/23 06:38:53;;;;;;;8.52;5.10;;;;;;;;;;5085752;28;20032;-72
2023/08/23 06:41:20;;;;;;;9.70;5.20;;;;;;;;;;5090859;28;20024;-72
2023/08/23 06:43:48;;;;;;;9.32;5.22;;;;;;;;;;5090937;28;20032;-72
2023/08/23 06:46:14;;;;;;;11.65;5.03;;;;;;;;;;5091910;28;20027;-72
2023/08/23 06:48:41;;;;;;;12.75;5.82;;;;;;;;;;5091682;28;20024;-72
2023/08/23 06:51:07;;;;;;;10.60;5.50;;;;;;;;;;5090799;28;20502;-72
2023/08/23 06:53:33;;;;;;;9.93;5.78;;;;;;;;;;5091443;28;20480;-72
2023/08/23 06:56:00;;;;;;;14.27;5.80;;;;;;;;;;5091479;28;20058;-71
2023/08/23 06:58:26;;;;;;;10.70;4.82;;;;;;;;;;5091108;28;20468;-72
2023/08/23 07:00:56;;;;;;;9.02;5.38;;;;;;;;;;5087989;28;20411;-72
2023/08/23 07:03:22;;;;;;;9.43;5.68;;;;;;;;;;5091575;28;20391;-72
2023/08/23 07:05:48;;;;;;;8.02;5.30;;;;;;;;;;5091943;28;20419;-72
2023/08/23 07:08:15;;;;;;;6.90;5.40;;;;;;;;;;5091939;28;20046;-72
2023/08/23 07:10:41;;;;;;;8.85;5.25;;;;;;;;;;5091038;28;20434;-72
2023/08/23 07:13:07;;;;;;;7.93;5.13;;;;;;;;;;5091978;28;20036;-72
2023/08/23 07:15:35;;;;;;;7.95;5.25;;;;;;;;;;5089670;28;20035;-72
2023/08/23 07:18:02;;;;;;;7.00;5.40;;;;;;;;;;5094561;28;20032;-71
2023/08/23 07:20:28;;;;;;;8.27;5.25;;;;;;;;;;5095286;28;20032;-72
2023/08/23 07:22:55;;;;;;;20.38;5.15;;;;;;;;;;5094315;28;20446;-72
2023/08/23 07:25:21;;;;;;;10.10;5.05;;;;;;;;;;5092051;28;20432;-71
2023/08/23 07:27:47;;;;;;;7.18;5.45;;;;;;;;;;5094538;28;20032;-72
2023/08/23 07:30:14;;;;;;;16.98;5.68;;;;;;;;;;5094602;28;20026;-72
2023/08/23 07:32:40;;;;;;;8.57;5.43;;;;;;;;;;5091314;28;20038;-71
2023/08/23 07:35:07;;;;;;;11.07;5.47;;;;;;;;;;5088529;28;20036;-72
2023/08/23 07:37:34;;;;;;;9.93;5.43;;;;;;;;;;5077734;28;20400;-72
2023/08/23 07:40:00;;;;;;;20.88;8.88;;;;;;;;;;5074024;28;20023;-72
2023/08/23 07:42:27;;;;;;;13.77;5.05;;;;;;;;;;5078793;28;20035;-69
2023/08/23 07:44:54;;;;;;;8.52;5.68;;;;;;;;;;5086463;28;20028;-69
2023/08/23 07:47:20;;;;;;;10.02;5.30;;;;;;;;;;5080221;28;20354;-69
2023/08/23 07:49:46;;;;;;;9.48;5.50;;;;;;;;;;5074355;28;20028;-69
2023/08/23 07:52:13;;;;;;;8.65;5.45;;;;;;;;;;5074175;28;20013;-69
2023/08/23 07:54:39;;;;;;;7.88;5.20;;;;;;;;;;5073870;28;20050;-69
2023/08/23 07:57:06;;;;;;;7.63;5.03;;;;;;;;;;5074385;28;20038;-69
2023/08/23 07:59:32;;;;;;;8.70;6.00;;;;;;;;;;5074049;28;20435;-69
2023/08/23 08:01:58;;;;;;;9.57;5.22;;;;;;;;;;5073803;28;20082;-69
2023/08/23 08:04:25;;;;;;;11.30;5.55;;;;;;;;;;5074300;28;20485;-69
2023/08/23 08:06:51;;;;;;;8.10;5.80;;;;;;;;;;5082887;28;20020;-69
2023/08/23 08:09:18;;;;;;;11.77;5.63;;;;;;;;;;5081194;28;20031;-69
2023/08/23 08:11:44;;;;;;;12.25;5.78;;;;;;;;;;5090272;28;20472;-69
2023/08/23 08:14:10;;;;;;;15.10;5.47;;;;;;;;;;5074190;28;20035;-69
2023/08/23 08:16:37;;;;;;;6.43;5.55;;;;;;;;;;5082197;28;20036;-69
2023/08/23 08:19:03;;;;;;;10.70;5.63;;;;;;;;;;5074262;28;20028;-69
2023/08/23 08:21:29;;;;;;;6.82;5.75;;;;;;;;;;5087379;28;20030;-69
2023/08/23 08:23:56;;;;;;;8.25;5.97;;;;;;;;;;5076174;28;20023;-69
2023/08/23 08:26:23;;;;;;;7.88;5.32;;;;;;;;;;5082564;28;20039;-69
2023/08/23 08:28:49;;;;;;;7.22;5.50;;;;;;;;;;5081188;28;20025;-69
2023/08/23 08:31:15;;;;;;;8.85;6.13;;;;;;;;;;5093258;28;20034;-69
2023/08/23 08:33:42;;;;;;;7.03;5.43;;;;;;;;;;5082476;28;20036;-69
2023/08/23 08:36:08;;;;;;;7.35;5.38;;;;;;;;;;5083337;28;20032;-69
2023/08/23 08:38:34;;;;;;;7.72;5.50;;;;;;;;;;5090973;28;20382;-69
2023/08/23 08:41:01;;;;;;;5.90;5.30;;;;;;;;;;5093700;28;20032;-69
2023/08/23 08:43:28;;;;;;;10.02;5.15;;;;;;;;;;5092401;28;20027;-69
2023/08/23 08:45:54;;;;;;;10.50;4.93;;;;;;;;;;5085292;28;20029;-69
2023/08/23 08:48:21;;;;;;;15.35;5.53;;;;;;;;;;5073718;28;20034;-69
2023/08/23 08:50:47;;;;;;;11.70;5.72;;;;;;;;;;5079217;28;20012;-69
2023/08/23 08:53:17;;;;;;;11.15;5.28;;;;;;;;;;5083065;28;20031;-69
2023/08/23 08:55:46;;;;;;;8.02;4.93;;;;;;;;;;5078342;28;20039;-69
2023/08/23 08:58:19;;;;;;;7.07;5.30;;;;;;;;;;5072791;28;20023;-69
2023/08/23 09:00:46;;;;;;;8.82;5.30;;;;;;;;;;5078594;28;20020;-69
2023/08/23 09:03:13;;;;;;;10.35;4.63;;;;;;;;;;5083928;28;20024;-69
2023/08/23 09:05:39;;;;;;;12.07;5.22;;;;;;;;;;5077167;28;20035;-69
2023/08/23 09:08:06;;;;;;;9.02;5.20;;;;;;;;;;5087061;28;20484;-69
2023/08/23 09:10:32;;;;;;;8.00;4.90;;;;;;;;;;5075842;28;20030;-69
2023/08/23 09:12:58;;;;;;;6.50;4.85;;;;;;;;;;5091399;28;20032;-69
2023/08/23 09:15:25;;;;;;;7.43;4.93;;;;;;;;;;5085761;28;20039;-68
2023/08/23 09:17:54;;;;;;;12.23;4.60;;;;;;;;;;5075176;28;20014;-68
2023/08/23 09:20:21;;;;;;;6.30;4.50;;;;;;;;;;5073227;28;20028;-69
2023/08/23 09:22:51;;;;;;;10.10;5.03;;;;;;;;;;5080346;28;20388;-69
2023/08/23 09:25:18;;;;;;;6.38;5.03;;;;;;;;;;5072567;28;20495;-69
2023/08/23 09:27:44;;;;;;;7.85;4.82;;;;;;;;;;5075208;28;20028;-69
2023/08/23 09:30:12;;;;;;;12.10;4.80;;;;;;;;;;5091595;28;20012;-67
2023/08/23 09:32:39;;;;;;;10.85;4.88;;;;;;;;;;5078896;28;20020;-66
2023/08/23 09:35:09;;;;;;;5.00;4.03;;;;;;;;;;5091856;28;20073;-67
2023/08/23 09:37:35;;;;;;;7.65;4.35;;;;;;;;;;5085502;28;20416;-68
2023/08/23 09:40:02;;;;;;;7.25;4.43;;;;;;;;;;5087839;28;20021;-67
2023/08/23 09:42:30;;;;;;;6.10;5.03;;;;;;;;;;5086301;28;20501;-67
2023/08/23 09:44:57;;;;;;;11.10;4.10;;;;;;;;;;5081332;28;20029;-67
2023/08/23 09:47:25;;;;;;;7.50;4.38;;;;;;;;;;5074531;28;20041;-67
2023/08/23 09:49:51;;;;;;;6.50;4.20;;;;;;;;;;5071278;28;20054;-66
2023/08/23 09:52:18;;;;;;;6.55;3.72;;;;;;;;;;5082685;28;20515;-66
2023/08/23 09:54:54;;;;;;;9.15;4.35;;;;;;;;;;5082021;28;20438;-67
2023/08/23 09:57:21;;;;;;;9.25;3.55;;;;;;;;;;5082276;28;20026;-67
2023/08/23 09:59:48;;;;;;;7.50;3.90;;;;;;;;;;5074728;28;20017;-67
2023/08/23 10:02:16;;;;;;;5.40;3.60;;;;;;;;;;5074154;28;20027;-67
2023/08/23 10:04:43;;;;;;;10.52;3.88;;;;;;;;;;5088396;28;20020;-67
2023/08/23 10:07:12;;;;;;;5.30;3.67;;;;;;;;;;5092165;28;20036;-67
2023/08/23 10:09:39;;;;;;;6.95;3.50;;;;;;;;;;5092535;28;20038;-68
2023/08/23 10:12:07;;;;;;;6.03;3.80;;;;;;;;;;5092950;28;20032;-67
2023/08/23 10:14:35;;;;;;;4.82;3.30;;;;;;;;;;5092544;28;20027;-67
2023/08/23 10:17:03;;;;;;;8.32;2.90;;;;;;;;;;5108774;28;20038;-67
2023/08/23 10:19:29;;;;;;;5.55;3.42;;;;;;;;;;5092207;28;20024;-67
2023/08/23 10:21:56;;;;;;;3.83;3.10;;;;;;;;;;5092792;28;20031;-67
2023/08/23 10:24:28;;;;;;;7.80;3.30;;;;;;;;;;5092529;28;20028;-67
2023/08/23 10:26:55;;;;;;;4.38;2.88;;;;;;;;;;5092523;28;20032;-67
2023/08/23 10:29:27;;;;;;;5.75;3.67;;;;;;;;;;5092946;28;20032;-67
2023/08/23 10:31:54;;;;;;;5.57;3.10;;;;;;;;;;5092605;28;20019;-67
2023/08/23 10:34:25;;;;;;;10.75;3.35;;;;;;;;;;5092126;28;20040;-67
2023/08/23 10:36:52;;;;;;;8.38;3.22;;;;;;;;;;5092207;28;20046;-67
2023/08/23 10:39:22;;;;;;;4.43;3.17;;;;;;;;;;5092614;28;20024;-67
2023/08/23 10:41:50;;;;;;;5.45;3.17;;;;;;;;;;5092614;28;20473;-67
2023/08/23 10:44:16;;;;;;;7.25;3.22;;;;;;;;;;5092197;28;20042;-67
2023/08/23 10:46:44;;;;;;;7.80;2.65;;;;;;;;;;5092211;28;20030;-68
2023/08/23 10:49:14;;;;;;;3.55;2.78;;;;;;;;;;5092029;28;20038;-67
2023/08/23 10:51:43;;;;;;;6.45;2.95;;;;;;;;;;5095295;28;20027;-67
2023/08/23 10:54:10;;;;;;;;;;;;;;;;;;5097023;28;20023;-67
2023/08/23 10:56:36;;;;;;;4.35;2.45;;;;;;;;;;5096439;28;19912;-67
2023/08/23 10:59:02;;;;;;;8.25;2.80;;;;;;;;;;5095156;28;20533;-67
2023/08/23 11:01:29;;;;;;;12.13;2.65;;;;;;;;;;5096151;28;20024;-68
2023/08/23 11:03:56;;;;;;;8.80;3.13;;;;;;;;;;5096148;28;20091;-68
2023/08/23 11:06:22;;;;;;;12.07;2.92;;;;;;;;;;5096256;28;20441;-67
2023/08/23 11:08:49;;;;;;;12.05;3.33;;;;;;;;;;5096281;28;20035;-67
2023/08/23 11:11:16;;;;;;;9.95;3.20;;;;;;;;;;5111797;28;20024;-68
2023/08/23 11:13:42;;;;;;;8.82;3.53;;;;;;;;;;5096163;28;20058;-67
2023/08/23 11:16:08;;;;;;;18.23;3.90;;;;;;;;;;5096035;28;20027;-67
2023/08/23 11:18:35;;;;;;;11.48;3.38;;;;;;;;;;5095825;28;20025;-67
2023/08/23 11:21:02;;;;;;;9.68;3.30;;;;;;;;;;5096277;28;20028;-67
2023/08/23 11:23:29;;;;;;;17.98;3.55;;;;;;;;;;5096009;28;20054;-67
2023/08/23 11:25:56;;;;;;;24.95;4.47;;;;;;;;;;5095737;28;20031;-67
2023/08/23 11:28:22;;;;;;;20.45;4.38;;;;;;;;;;5095849;28;20378;-67
2023/08/23 11:30:48;;;;;;;16.63;3.60;;;;;;;;;;5095735;28;20031;-67
2023/08/23 11:33:15;;;;;;;18.15;3.95;;;;;;;;;;5095204;28;20473;-67
2023/08/23 11:35:41;;;;;;;17.95;3.63;;;;;;;;;;5095667;28;20046;-67
2023/08/23 11:38:08;;;;;;;21.60;3.60;;;;;;;;;;5095418;28;20024;-67
2023/08/23 11:40:34;;;;;;;16.23;3.38;;;;;;;;;;5095614;28;20020;-67
2023/08/23 11:43:04;;;;;;;16.75;3.45;;;;;;;;;;5095668;28;20487;-67
2023/08/23 11:45:37;;;;;;;9.40;3.15;;;;;;;;;;5095980;28;20069;-67
2023/08/23 11:48:03;;;;;;;19.90;3.78;;;;;;;;;;5095331;28;20035;-67
2023/08/23 11:50:30;;;;;;;12.65;3.90;;;;;;;;;;5095334;28;20430;-68
2023/08/23 11:52:56;;;;;;;9.63;3.40;;;;;;;;;;5095418;28;20028;-67
2023/08/23 11:55:23;;;;;;;16.23;3.20;;;;;;;;;;5095211;28;20038;-67
2023/08/23 11:57:53;;;;;;;10.20;3.22;;;;;;;;;;5095435;28;20027;-67
2023/08/23 12:00:19;;;;;;;18.85;3.60;;;;;;;;;;5094829;28;20024;-67
2023/08/23 12:02:46;;;;;;;16.80;3.38;;;;;;;;;;5093083;28;20020;-67
2023/08/23 12:05:14;;;;;;;10.25;3.33;;;;;;;;;;5095207;28;20419;-67
2023/08/23 12:07:41;;;;;;;10.77;3.33;;;;;;;;;;5094107;28;20020;-68
2023/08/23 12:10:11;;;;;;;11.95;2.90;;;;;;;;;;5095237;28;20032;-67
2023/08/23 12:12:37;;;;;;;;;;;;;;;;;;5095648;28;20016;-67
2023/08/23 12:15:04;;;;;;;12.32;3.35;;;;;;;;;;5094495;28;19912;-67
2023/08/23 12:17:30;;;;;;;7.85;3.10;;;;;;;;;;5094964;28;20020;-68
2023/08/23 12:19:57;;;;;;;12.88;3.20;;;;;;;;;;5094967;28;20050;-67
2023/08/23 12:22:23;;;;;;;9.85;3.28;;;;;;;;;;5094621;28;20031;-67
2023/08/23 12:24:49;;;;;;;7.68;3.08;;;;;;;;;;5095061;28;20039;-67
2023/08/23 12:27:16;;;;;;;11.27;3.00;;;;;;;;;;5094688;28;20026;-67
2023/08/23 12:29:42;;;;;;;12.35;3.10;;;;;;;;;;5094223;28;20484;-68
2023/08/23 12:32:09;;;;;;;10.77;3.38;;;;;;;;;;5094342;28;20410;-68
2023/08/23 12:34:36;;;;;;;11.55;3.25;;;;;;;;;;5094390;28;20393;-68
2023/08/23 12:37:03;;;;;;;8.43;2.67;;;;;;;;;;5091933;28;20036;-67
2023/08/23 12:39:30;;;;;;;8.38;3.13;;;;;;;;;;5078054;28;20028;-67
2023/08/23 12:41:56;;;;;;;12.40;3.53;;;;;;;;;;5081574;28;20032;-68
2023/08/23 12:44:23;;;;;;;11.93;3.38;;;;;;;;;;5073449;28;20029;-67
2023/08/23 12:46:50;;;;;;;11.80;3.40;;;;;;;;;;5082639;28;20488;-68
2023/08/23 12:49:17;;;;;;;16.83;3.10;;;;;;;;;;5080370;28;20378;-68
2023/08/23 12:51:43;;;;;;;9.05;3.30;;;;;;;;;;5063436;28;20034;-67
2023/08/23 12:54:10;;;;;;;13.20;3.40;;;;;;;;;;5073256;28;20389;-68
2023/08/23 12:56:36;;;;;;;9.50;2.97;;;;;;;;;;5080013;28;20046;-68
2023/08/23 12:59:03;;;;;;;7.28;3.00;;;;;;;;;;5082446;28;20534;-67
2023/08/23 13:01:34;;;;;;;9.77;3.17;;;;;;;;;;5078714;28;20403;-67
2023/08/23 13:04:00;;;;;;;11.18;2.88;;;;;;;;;;5074432;28;20017;-68
2023/08/23 13:06:27;;;;;;;13.05;2.72;;;;;;;;;;5077065;28;20040;-67
2023/08/23 13:08:53;;;;;;;9.07;2.97;;;;;;;;;;5084200;28;20021;-68
2023/08/23 13:11:19;;;;;;;8.90;2.80;;;;;;;;;;5076699;28;20024;-67
2023/08/23 13:13:50;;;;;;;6.00;2.70;;;;;;;;;;5076239;28;20024;-68
2023/08/23 13:16:17;;;;;;;7.22;2.85;;;;;;;;;;5075322;28;20035;-68
2023/08/23 13:18:43;;;;;;;8.70;3.22;;;;;;;;;;5086090;28;20030;-67
2023/08/23 13:21:09;;;;;;;8.10;2.80;;;;;;;;;;5074885;28;20039;-67
2023/08/23 13:23:36;;;;;;;10.18;3.08;;;;;;;;;;5078878;28;20037;-68
2023/08/23 13:26:02;;;;;;;12.40;2.72;;;;;;;;;;5072721;28;20493;-67
2023/08/23 13:28:28;;;;;;;9.68;2.92;;;;;;;;;;5088009;28;20020;-67
2023/08/23 13:30:56;;;;;;;11.18;2.72;;;;;;;;;;5072514;28;20029;-66
2023/08/23 13:33:23;;;;;;;10.90;2.78;;;;;;;;;;5080793;28;20016;-67
2023/08/23 13:35:50;;;;;;;7.55;2.97;;;;;;;;;;5072190;28;20149;-66
2023/08/23 13:38:16;;;;;;;9.98;2.60;;;;;;;;;;5088802;28;20032;-67
2023/08/23 13:40:42;;;;;;;13.07;2.90;;;;;;;;;;5072544;28;20101;-67
2023/08/23 13:43:09;;;;;;;10.93;3.00;;;;;;;;;;5080176;28;20015;-67
2023/08/23 13:45:35;;;;;;;10.50;2.90;;;;;;;;;;5072084;28;20074;-67
2023/08/23 13:48:02;;;;;;;10.93;2.88;;;;;;;;;;5088439;28;20054;-67
2023/08/23 13:50:28;;;;;;;10.40;3.38;;;;;;;;;;5072392;28;20027;-67
2023/08/23 13:52:54;;;;;;;10.45;3.00;;;;;;;;;;5080305;28;20027;-67
2023/08/23 13:55:20;;;;;;;11.43;2.88;;;;;;;;;;5072067;28;20512;-67
2023/08/23 13:57:47;;;;;;;10.80;3.00;;;;;;;;;;5084900;28;20024;-67
2023/08/23 14:00:13;;;;;;;13.48;3.00;;;;;;;;;;5075035;28;20031;-67
2023/08/23 14:02:39;;;;;;;11.55;3.22;;;;;;;;;;5080183;28;20024;-67
2023/08/23 14:05:07;;;;;;;7.65;3.00;;;;;;;;;;5070743;28;20031;-67
2023/08/23 14:07:34;;;;;;;13.50;3.65;;;;;;;;;;5082624;28;20484;-67
2023/08/23 14:10:00;;;;;;;12.77;2.97;;;;;;;;;;5077308;28;20028;-67
2023/08/23 14:12:26;;;;;;;10.30;2.80;;;;;;;;;;5079535;28;20020;-67
2023/08/23 14:14:52;;;;;;;10.75;3.03;;;;;;;;;;5071769;28;20037;-67
2023/08/23 14:17:19;;;;;;;9.27;3.22;;;;;;;;;;5080154;28;20026;-67
2023/08/23 14:19:48;;;;;;;17.60;3.25;;;;;;;;;;5079507;28;20552;-67
2023/08/23 14:22:15;;;;;;;9.32;3.13;;;;;;;;;;5078254;28;20045;-67
2023/08/23 14:24:41;;;;;;;10.60;3.05;;;;;;;;;;5072033;28;20020;-67
2023/08/23 14:27:08;;;;;;;11.30;3.30;;;;;;;;;;5077687;28;20019;-67
2023/08/23 14:29:34;;;;;;;12.80;3.30;;;;;;;;;;5081760;28;20489;-67
2023/08/23 14:32:00;;;;;;;8.95;3.17;;;;;;;;;;5076898;28;20032;-67
2023/08/23 14:34:27;;;;;;;12.30;2.92;;;;;;;;;;5074517;28;20043;-67
2023/08/23 14:36:54;;;;;;;12.93;3.63;;;;;;;;;;5075609;28;20051;-67
2023/08/23 14:39:21;;;;;;;14.55;3.25;;;;;;;;;;5092556;28;20086;-67